FTTJ

Details ICAO FTTJ (NDJ)
Name Ndjamena Hassan Djamous
Region Chad
Timezone Africa/Ndjamena (UTC+1.0)
Plans Departing 107
Arriving 89
Stats Elevation 968 ft / 295 m (AMSL)
Location 12.133718° 15.033962°
Runways 1
Magnetic Variation 1.183° E
Sunrise 2017-12-15 05:13:53 UTC / 2017-12-15 06:13:53 Local
Sunset 2017-12-15 16:38:53 UTC / 2017-12-15 17:38:53 Local
Advertisement - Login to hide

Runways

ID Width Length Bearing (true) Bearing (mag) Surface Threshold Offset Overrun Length
05 148 ft / 45 m 9,200 ft / 2,804 m 45.72° 44.54° Asphalt 0 ft / 0 m 130 ft / 40 m
23 148 ft / 45 m 9,200 ft / 2,804 m 225.72° 224.54° Asphalt 0 ft / 0 m 200 ft / 61 m

Approach Navaids

Runway Type Ident Frequency Range Bearing (true) Bearing (mag) Slope Elevation
05 Localiser IFL 109.90 MHz 18 nm / 33 km 45.80° 44.62° - 968 ft / 295 m (AMSL)
05 Glidescope IFL 109.90 MHz 10 nm / 19 km 45.72° 44.53° 3.00° 968 ft / 295 m (AMSL)

Map

Weather


0- 5 10 15 20 25 30 35+ Temperature / ° C

Clouds and Precipitation
Forecast for 2017-12-15 18:00 UTC. Updated an hour ago

Ground ~20,000 ft ~40,000 ft Winds

METAR

FTTJ 151800Z 01008KT CAVOK 29/00 Q1010 NOSIG

TAF

TAF FTTJ 151700Z 1518/1624 02008KT 6000 NSC TEMPO 1600/1606 4000 DU

Frequencies

Tower 119.70 MHz TWR
Approach 119.70 MHz APP
Warning: Do not use this data for real-world aviation or navigation. No guarantee of current accuracy is given.